createdAt,value
2016-05-06T00:00:25.947Z,8.01
2016-05-06T00:01:25.949Z,7.99
2016-05-06T00:02:25.937Z,7.98
2016-05-06T00:03:25.940Z,7.96
2016-05-06T00:04:25.927Z,7.88
2016-05-06T00:05:25.929Z,7.81
2016-05-06T00:06:25.932Z,7.81
2016-05-06T00:07:25.949Z,7.83
2016-05-06T00:08:25.953Z,7.8
2016-05-06T00:09:25.940Z,7.7
2016-05-06T00:10:25.943Z,7.75
2016-05-06T00:11:25.945Z,7.7
2016-05-06T00:12:27.620Z,7.67
2016-05-06T00:13:25.951Z,7.58
2016-05-06T00:14:25.782Z,7.59
2016-05-06T00:15:25.956Z,7.56
2016-05-06T00:16:25.787Z,7.61
2016-05-06T00:17:25.648Z,7.55
2016-05-06T00:18:25.949Z,7.48
2016-05-06T00:19:25.795Z,7.48
2016-05-06T00:20:25.625Z,7.33
2016-05-06T00:21:25.935Z,7.5
2016-05-06T00:22:25.937Z,7.4
2016-05-06T00:23:25.783Z,7.41
2016-05-06T00:24:25.942Z,7.37
2016-05-06T00:25:25.960Z,7.25
2016-05-06T00:26:25.948Z,7.31
2016-05-06T00:27:25.935Z,7.32
2016-05-06T00:28:25.937Z,7.25
2016-05-06T00:29:25.956Z,7.25
2016-05-06T00:30:25.927Z,7.19
2016-05-06T00:31:25.804Z,7.18
2016-05-06T00:32:25.932Z,7.11
2016-05-06T00:33:25.951Z,7.11
2016-05-06T00:34:25.953Z,7.11
2016-05-06T00:35:25.785Z,7.07
2016-05-06T00:36:25.959Z,7.13
2016-05-06T00:37:25.945Z,6.96
2016-05-06T00:38:25.948Z,6.96
2016-05-06T00:39:25.951Z,6.97
2016-05-06T00:40:26.094Z,7.03
2016-05-06T00:41:25.956Z,6.9
2016-05-06T00:42:25.928Z,6.92
2016-05-06T00:43:25.931Z,6.95
2016-05-06T00:44:25.933Z,6.89
2016-05-06T00:45:25.936Z,6.92
2016-05-06T00:46:25.938Z,6.86
2016-05-06T00:47:25.925Z,6.89
2016-05-06T00:48:25.944Z,6.86
2016-05-06T00:49:25.947Z,6.89
2016-05-06T00:50:25.949Z,6.83
2016-05-06T00:51:25.936Z,6.82
2016-05-06T00:52:25.939Z,6.7
2016-05-06T00:53:25.942Z,6.75
2016-05-06T00:54:25.944Z,6.74
2016-05-06T00:55:26.088Z,6.65
2016-05-06T00:56:25.950Z,6.7
2016-05-06T00:57:25.796Z,6.72
2016-05-06T00:58:25.940Z,6.7
2016-05-06T00:59:25.942Z,6.68
2016-05-06T01:00:25.946Z,6.67
2016-05-06T01:01:25.932Z,6.67
2016-05-06T01:02:25.935Z,6.59
2016-05-06T01:03:25.937Z,6.49
2016-05-06T01:04:25.940Z,6.59
2016-05-06T01:05:25.943Z,6.54
2016-05-06T01:06:25.946Z,6.53
2016-05-06T01:07:25.933Z,6.49
2016-05-06T01:08:25.951Z,6.53
2016-05-06T01:09:25.954Z,6.49
2016-05-06T01:10:25.784Z,6.47
2016-05-06T01:11:25.944Z,6.39
2016-05-06T01:12:25.789Z,6.38
2016-05-06T01:13:25.778Z,6.38
2016-05-06T01:14:25.952Z,6.41
2016-05-06T01:15:25.783Z,6.41
2016-05-06T01:16:25.941Z,6.39
2016-05-06T01:17:25.788Z,6.41
2016-05-06T01:18:25.931Z,6.36
2016-05-06T01:19:25.950Z,6.38
2016-05-06T01:20:25.936Z,6.41
2016-05-06T01:21:25.938Z,6.36
2016-05-06T01:22:25.927Z,6.39
2016-05-06T01:23:25.929Z,6.35
2016-05-06T01:24:25.932Z,6.46
2016-05-06T01:25:26.215Z,6.32
2016-05-06T01:26:25.938Z,6.35
2016-05-06T01:27:25.940Z,6.29
2016-05-06T01:28:25.943Z,6.32
2016-05-06T01:29:25.929Z,6.32
2016-05-06T01:30:25.932Z,6.25
2016-05-06T01:31:25.951Z,6.15
2016-05-06T01:32:25.937Z,6.16
2016-05-06T01:33:25.940Z,6.13
2016-05-06T01:34:25.614Z,6.09
2016-05-06T01:35:25.774Z,6.13
2016-05-06T01:36:25.948Z,5.99
2016-05-06T01:37:25.934Z,6.05
2016-05-06T01:38:25.937Z,5.98
2016-05-06T01:39:25.770Z,5.92
2016-05-06T01:40:25.928Z,5.97
2016-05-06T01:41:25.945Z,5.87
2016-05-06T01:42:25.934Z,5.95
2016-05-06T01:43:25.780Z,5.84
2016-05-06T01:44:25.939Z,5.83
2016-05-06T01:45:25.941Z,5.87
2016-05-06T01:46:25.928Z,5.8
2016-05-06T01:47:25.916Z,5.83
2016-05-06T01:48:25.950Z,5.72
2016-05-06T01:49:25.796Z,5.79
2016-05-06T01:50:25.923Z,5.8
2016-05-06T01:51:25.927Z,5.7
2016-05-06T01:52:25.930Z,5.73
2016-05-06T01:53:25.775Z,5.77
2016-05-06T01:54:25.934Z,5.76
2016-05-06T01:55:25.953Z,5.76
2016-05-06T01:56:25.924Z,5.76
2016-05-06T01:57:25.927Z,5.74
2016-05-06T01:58:25.929Z,5.79
2016-05-06T01:59:25.932Z,5.72
2016-05-06T02:00:25.935Z,5.72
2016-05-06T02:01:25.921Z,5.72
2016-05-06T02:02:25.940Z,5.67
2016-05-06T02:03:25.770Z,5.65
2016-05-06T02:04:25.930Z,5.64
2016-05-06T02:05:25.932Z,5.65
2016-05-06T02:06:25.920Z,5.65
2016-05-06T02:07:25.781Z,5.51
2016-05-06T02:08:25.925Z,5.49
2016-05-06T02:09:25.771Z,5.47
2016-05-06T02:10:26.773Z,5.51
2016-05-06T02:11:25.917Z,5.54
2016-05-06T02:12:25.936Z,5.58
2016-05-06T02:13:25.767Z,5.51
2016-05-06T02:14:25.909Z,5.49
2016-05-06T02:15:25.928Z,5.47
2016-05-06T02:16:25.775Z,5.56
2016-05-06T02:17:25.918Z,5.51
2016-05-06T02:18:25.780Z,5.37
2016-05-06T02:19:25.767Z,5.37
2016-05-06T02:20:25.926Z,5.37
2016-05-06T02:21:25.928Z,5.38
2016-05-06T02:22:25.931Z,5.34
2016-05-06T02:23:25.937Z,5.33
2016-05-06T02:24:25.925Z,5.31
2016-05-06T02:25:25.928Z,5.33
2016-05-06T02:26:25.915Z,5.29
2016-05-06T02:27:25.605Z,5.31
2016-05-06T02:28:25.920Z,5.23
2016-05-06T02:29:25.766Z,5.22
2016-05-06T02:30:25.770Z,5.25
2016-05-06T02:31:25.928Z,5.15
2016-05-06T02:32:25.914Z,5.2
2016-05-06T02:33:25.917Z,5.2
2016-05-06T02:34:25.920Z,5.23
2016-05-06T02:35:25.923Z,5.18
2016-05-06T02:36:25.769Z,5.12
2016-05-06T02:37:25.914Z,5.13
2016-05-06T02:38:25.916Z,5.12
2016-05-06T02:39:25.919Z,5.05
2016-05-06T02:40:25.921Z,5.02
2016-05-06T02:41:25.907Z,5.07
2016-05-06T02:42:25.910Z,5.08
2016-05-06T02:43:25.930Z,5.04
2016-05-06T02:44:25.932Z,5.04
2016-05-06T02:45:25.918Z,5.12
2016-05-06T02:46:25.922Z,5.08
2016-05-06T02:47:25.752Z,5.08
2016-05-06T02:48:25.754Z,5.12
2016-05-06T02:49:25.773Z,5.02
2016-05-06T02:50:25.918Z,5.02
2016-05-06T02:51:25.904Z,5.04
2016-05-06T02:52:25.906Z,4.98
2016-05-06T02:53:25.754Z,5
2016-05-06T02:54:25.911Z,4.94
2016-05-06T02:55:25.915Z,4.9
2016-05-06T02:56:25.917Z,5
2016-05-06T02:57:25.904Z,5.01
2016-05-06T02:58:25.907Z,4.98
2016-05-06T02:59:25.910Z,4.92
2016-05-06T03:00:25.912Z,4.94
2016-05-06T03:01:25.930Z,4.71
2016-05-06T03:02:25.903Z,4.75
2016-05-06T03:03:25.748Z,4.7
2016-05-06T03:04:25.908Z,4.67
2016-05-06T03:05:25.894Z,4.78
2016-05-06T03:06:25.897Z,4.64
2016-05-06T03:07:25.916Z,4.71
2016-05-06T03:08:25.933Z,4.71
2016-05-06T03:09:25.905Z,4.71
2016-05-06T03:10:26.111Z,4.75
2016-05-06T03:11:25.911Z,4.76
2016-05-06T03:12:25.897Z,4.74
2016-05-06T03:13:25.744Z,4.7
2016-05-06T03:14:25.902Z,4.71
2016-05-06T03:15:25.891Z,4.68
2016-05-06T03:16:25.908Z,4.71
2016-05-06T03:17:25.896Z,4.68
2016-05-06T03:18:25.898Z,4.74
2016-05-06T03:19:25.901Z,4.7
2016-05-06T03:20:25.904Z,4.7
2016-05-06T03:21:25.906Z,4.68
2016-05-06T03:22:25.893Z,4.61
2016-05-06T03:23:25.912Z,4.56
2016-05-06T03:24:25.884Z,4.57
2016-05-06T03:25:25.901Z,4.57
2016-05-06T03:26:25.701Z,4.56
2016-05-06T03:27:25.892Z,4.58
2016-05-06T03:28:25.894Z,4.58
2016-05-06T03:29:25.897Z,4.49
2016-05-06T03:30:25.900Z,4.5
2016-05-06T03:31:25.902Z,4.57
2016-05-06T03:32:25.905Z,4.48
2016-05-06T03:33:25.751Z,4.49
2016-05-06T03:34:25.894Z,4.4
2016-05-06T03:35:25.897Z,4.34
2016-05-06T03:36:25.900Z,4.38
2016-05-06T03:37:25.887Z,4.38
2016-05-06T03:38:25.889Z,4.42
2016-05-06T03:39:25.892Z,4.45
2016-05-06T03:40:25.895Z,4.32
2016-05-06T03:41:27.174Z,4.32
2016-05-06T03:42:25.736Z,4.43
2016-05-06T03:43:25.712Z,4.49
2016-05-06T03:44:25.729Z,4.39
2016-05-06T03:45:25.716Z,4.39
2016-05-06T03:46:25.875Z,4.38
2016-05-06T03:47:25.722Z,4.46
2016-05-06T03:48:25.880Z,4.4
2016-05-06T03:49:25.868Z,4.36
2016-05-06T03:50:25.916Z,4.45
2016-05-06T03:51:25.873Z,4.43
2016-05-06T03:52:25.704Z,4.4
2016-05-06T03:53:25.862Z,4.38
2016-05-06T03:54:25.725Z,4.39
2016-05-06T03:55:25.712Z,4.4
2016-05-06T03:56:25.730Z,4.36
2016-05-06T03:57:25.857Z,4.43
2016-05-06T03:58:25.876Z,4.34
2016-05-06T03:59:25.863Z,4.34
2016-05-06T04:00:25.554Z,4.38
2016-05-06T04:01:25.712Z,4.52
2016-05-06T04:02:25.855Z,4.48
2016-05-06T04:03:25.702Z,4.53
2016-05-06T04:04:25.861Z,4.5
2016-05-06T04:05:25.863Z,4.52
2016-05-06T04:06:25.851Z,4.56
2016-05-06T04:07:25.870Z,4.6
2016-05-06T04:08:25.700Z,4.74
2016-05-06T04:09:25.874Z,4.71
2016-05-06T04:10:25.706Z,4.67
2016-05-06T04:11:25.879Z,4.7
2016-05-06T04:12:25.851Z,4.66
2016-05-06T04:13:25.885Z,4.76
2016-05-06T04:14:25.856Z,4.75
2016-05-06T04:15:25.844Z,4.71
2016-05-06T04:16:25.846Z,4.75
2016-05-06T04:17:25.708Z,4.82
2016-05-06T04:18:25.866Z,4.76
2016-05-06T04:19:25.558Z,4.86
2016-05-06T04:20:25.857Z,5.18
2016-05-06T04:21:25.860Z,5.34
2016-05-06T04:22:25.690Z,5.61
2016-05-06T04:23:25.849Z,5.99
2016-05-06T04:24:25.696Z,6.26
2016-05-06T04:25:25.854Z,6.52
2016-05-06T04:26:25.701Z,6.97
2016-05-06T04:27:25.688Z,7.33
2016-05-06T04:28:25.848Z,7.56
2016-05-06T04:29:25.865Z,7.93
2016-05-06T04:30:25.853Z,8.32
2016-05-06T04:31:25.840Z,8.56
2016-05-06T04:32:25.859Z,8.99
2016-05-06T04:33:25.861Z,9.26
2016-05-06T04:34:25.848Z,9.47
2016-05-06T04:35:25.851Z,9.8
2016-05-06T04:36:25.853Z,10.07
2016-05-06T04:37:25.856Z,10.48
2016-05-06T04:38:25.858Z,10.68
2016-05-06T04:39:25.861Z,10.97
2016-05-06T04:40:25.848Z,11.26
2016-05-06T04:41:25.867Z,11.52
2016-05-06T04:42:25.853Z,11.91
2016-05-06T04:43:25.841Z,12.18
2016-05-06T04:44:25.859Z,12.47
2016-05-06T04:45:25.846Z,12.91
2016-05-06T04:46:25.849Z,13.31
2016-05-06T04:47:25.852Z,13.71
2016-05-06T04:48:25.855Z,14.18
2016-05-06T04:49:25.857Z,14.45
2016-05-06T04:50:25.860Z,14.94
2016-05-06T04:51:25.862Z,15.19
2016-05-06T04:52:25.880Z,15.62
2016-05-06T04:53:25.852Z,15.84
2016-05-06T04:54:25.886Z,16.09
2016-05-06T04:55:25.857Z,16.31
2016-05-06T04:56:25.876Z,16.59
2016-05-06T04:57:25.863Z,16.79
2016-05-06T04:58:25.709Z,17.1
2016-05-06T04:59:25.852Z,17.49
2016-05-06T05:00:25.714Z,17.72
2016-05-06T05:01:25.858Z,17.95
2016-05-06T05:02:25.704Z,18.12
2016-05-06T05:03:25.878Z,18.33
2016-05-06T05:04:25.898Z,18.67
2016-05-06T05:05:25.868Z,19.04
2016-05-06T05:06:25.871Z,19.23
2016-05-06T05:07:25.873Z,19.49
2016-05-06T05:08:25.877Z,19.56
2016-05-06T05:09:25.723Z,19.72
2016-05-06T05:10:25.905Z,19.85
2016-05-06T05:11:25.798Z,20.11
2016-05-06T05:12:25.848Z,20.24
2016-05-06T05:13:26.054Z,20.5
2016-05-06T05:14:25.964Z,20.68
2016-05-06T05:15:25.983Z,20.85
2016-05-06T05:16:26.159Z,21.13
2016-05-06T05:17:26.179Z,21.41
2016-05-06T05:18:26.214Z,21.6
2016-05-06T05:19:26.061Z,21.81
2016-05-06T05:20:26.076Z,22.04
2016-05-06T05:21:26.241Z,22.38
2016-05-06T05:22:26.250Z,22.67
2016-05-06T05:23:26.258Z,22.96
2016-05-06T05:24:26.268Z,23.1
2016-05-06T05:25:26.112Z,23.18
2016-05-06T05:26:26.118Z,23.29
2016-05-06T05:27:26.284Z,23.62
2016-05-06T05:28:26.306Z,23.94
2016-05-06T05:29:26.290Z,24.18
2016-05-06T05:30:26.294Z,24.4
2016-05-06T05:31:26.142Z,24.53
2016-05-06T05:32:26.146Z,24.63
2016-05-06T05:33:26.321Z,24.82
2016-05-06T05:34:26.309Z,25.04
2016-05-06T05:35:26.312Z,25.54
2016-05-06T05:36:26.348Z,25.74
2016-05-06T05:37:26.334Z,25.99
2016-05-06T05:38:26.182Z,26.31
2016-05-06T05:39:26.185Z,26.53
2016-05-06T05:40:26.360Z,26.92
2016-05-06T05:41:26.222Z,27.18
2016-05-06T05:42:26.350Z,27.41
2016-05-06T05:43:26.368Z,27.57
2016-05-06T05:44:26.371Z,27.58
2016-05-06T05:45:26.217Z,27.73
2016-05-06T05:46:26.376Z,27.76
2016-05-06T05:47:26.379Z,27.64
2016-05-06T05:48:26.382Z,27.76
2016-05-06T05:49:26.228Z,28.01
2016-05-06T05:50:26.230Z,28.28
2016-05-06T05:51:26.405Z,28.53
2016-05-06T05:52:26.407Z,28.59
2016-05-06T05:53:26.410Z,28.71
2016-05-06T05:54:26.429Z,28.75
2016-05-06T05:55:26.432Z,28.84
2016-05-06T05:56:26.434Z,29
2016-05-06T05:57:26.453Z,28.87
2016-05-06T05:58:26.440Z,28.87
2016-05-06T05:59:26.426Z,29.2
2016-05-06T06:00:26.461Z,29.39
2016-05-06T06:01:26.479Z,29.73
2016-05-06T06:02:26.466Z,29.94
2016-05-06T06:03:26.469Z,30.1
2016-05-06T06:04:26.800Z,30.33
2016-05-06T06:05:26.489Z,30.7
2016-05-06T06:06:26.508Z,31.07
2016-05-06T06:07:26.495Z,31.47
2016-05-06T06:08:26.514Z,31.59
2016-05-06T06:09:26.500Z,31.55
2016-05-06T06:10:26.519Z,31.63
2016-05-06T06:11:26.365Z,31.81
2016-05-06T06:12:26.524Z,31.9
2016-05-06T06:13:26.527Z,32.09
2016-05-06T06:14:26.389Z,32.29
2016-05-06T06:15:26.548Z,32.45
2016-05-06T06:16:26.566Z,32.81
2016-05-06T06:17:26.568Z,33.2
2016-05-06T06:18:26.556Z,33.13
2016-05-06T06:19:26.418Z,33.1
2016-05-06T06:20:26.436Z,33.12
2016-05-06T06:21:26.580Z,33.32
2016-05-06T06:22:26.598Z,33.39
2016-05-06T06:23:26.601Z,33.77
2016-05-06T06:24:26.462Z,34.03
2016-05-06T06:25:26.450Z,34.38
2016-05-06T06:26:26.640Z,34.5
2016-05-06T06:27:26.315Z,34.58
2016-05-06T06:28:26.645Z,34.81
2016-05-06T06:29:26.648Z,34.91
2016-05-06T06:30:26.666Z,34.86
2016-05-06T06:31:26.513Z,34.82
2016-05-06T06:32:26.515Z,34.93
2016-05-06T06:33:26.517Z,35.23
2016-05-06T06:34:26.678Z,35.52
2016-05-06T06:35:26.680Z,35.82
2016-05-06T06:36:26.697Z,36.03
2016-05-06T06:37:26.701Z,36.32
2016-05-06T06:38:26.734Z,36.48
2016-05-06T06:39:26.722Z,36.72
2016-05-06T06:40:26.725Z,37.01
2016-05-06T06:41:27.117Z,37.19
2016-05-06T06:42:26.761Z,37.41
2016-05-06T06:43:26.763Z,37.66
2016-05-06T06:44:26.782Z,37.85
2016-05-06T06:45:26.613Z,37.76
2016-05-06T06:46:26.788Z,37.67
2016-05-06T06:47:26.806Z,37.44
2016-05-06T06:48:26.808Z,37.28
2016-05-06T06:49:26.655Z,37.29
2016-05-06T06:50:26.657Z,37.31
2016-05-06T06:51:26.691Z,37.22
2016-05-06T06:52:26.835Z,37.19
2016-05-06T06:53:26.682Z,37.47
2016-05-06T06:54:26.543Z,37.5
2016-05-06T06:55:26.702Z,37.61
2016-05-06T06:56:26.704Z,37.57
2016-05-06T06:57:26.879Z,37.54
2016-05-06T06:58:26.882Z,37.58
2016-05-06T06:59:26.728Z,37.61
2016-05-06T07:00:26.888Z,37.88
2016-05-06T07:01:26.750Z,38.12
2016-05-06T07:02:26.924Z,38.27
2016-05-06T07:03:26.943Z,38.34
2016-05-06T07:04:26.804Z,38.44
2016-05-06T07:05:26.791Z,38.54
2016-05-06T07:06:26.966Z,38.5
2016-05-06T07:07:26.969Z,38.6
2016-05-06T07:08:26.972Z,38.9
2016-05-06T07:09:26.989Z,39.14
2016-05-06T07:10:26.853Z,39.42
2016-05-06T07:11:27.480Z,39.59
2016-05-06T07:12:26.997Z,39.86
2016-05-06T07:13:27.032Z,40
2016-05-06T07:14:27.019Z,40.22
2016-05-06T07:15:26.880Z,40.42
2016-05-06T07:16:27.055Z,40.7
2016-05-06T07:17:27.058Z,41.03
2016-05-06T07:18:27.077Z,40.92
2016-05-06T07:19:26.783Z,40.7
2016-05-06T07:20:27.082Z,40.73
2016-05-06T07:21:27.085Z,40.86
2016-05-06T07:22:27.102Z,41.04
2016-05-06T07:23:27.142Z,41.03
2016-05-06T07:24:26.973Z,41.2
2016-05-06T07:25:26.975Z,41.34
2016-05-06T07:26:27.634Z,41.49
2016-05-06T07:27:27.153Z,41.8
2016-05-06T07:28:27.171Z,42.2
2016-05-06T07:29:27.173Z,42.34
2016-05-06T07:30:27.036Z,42.34
2016-05-06T07:31:27.210Z,42.49
2016-05-06T07:32:27.042Z,42.55
2016-05-06T07:33:27.216Z,42.74
2016-05-06T07:34:27.078Z,42.86
2016-05-06T07:35:27.252Z,42.93
2016-05-06T07:36:27.239Z,42.99
2016-05-06T07:37:27.258Z,42.97
2016-05-06T07:38:27.103Z,42.96
2016-05-06T07:39:27.263Z,42.8
2016-05-06T07:40:27.125Z,42.86
2016-05-06T07:41:27.159Z,42.93
2016-05-06T07:42:27.318Z,43.25
2016-05-06T07:43:27.321Z,43.65
2016-05-06T07:44:27.167Z,44.19
2016-05-06T07:45:27.341Z,44.35
2016-05-06T07:46:27.329Z,44.13
2016-05-06T07:47:27.363Z,43.91
2016-05-06T07:48:27.365Z,43.57
2016-05-06T07:49:27.384Z,43.11
2016-05-06T07:50:27.371Z,42.55
2016-05-06T07:51:27.388Z,42.17
2016-05-06T07:52:27.407Z,41.91
2016-05-06T07:53:27.254Z,41.95
2016-05-06T07:54:27.428Z,42.21
2016-05-06T07:55:27.446Z,42.2
2016-05-06T07:56:27.449Z,42.18
2016-05-06T07:57:27.468Z,42.03
2016-05-06T07:58:27.454Z,41.68
2016-05-06T07:59:27.474Z,41.27
2016-05-06T08:00:27.476Z,40.93
2016-05-06T08:01:27.494Z,40.76
2016-05-06T08:02:27.497Z,40.64
2016-05-06T08:03:27.515Z,40.64
2016-05-06T08:04:27.517Z,40.83
2016-05-06T08:05:27.536Z,41.14
2016-05-06T08:06:27.539Z,41.32
2016-05-06T08:07:27.401Z,41.37
2016-05-06T08:08:27.403Z,41.65
2016-05-06T08:09:27.562Z,41.96
2016-05-06T08:10:27.581Z,42.09
2016-05-06T08:11:27.442Z,42.07
2016-05-06T08:12:27.602Z,42.29
2016-05-06T08:13:27.463Z,42.51
2016-05-06T08:14:27.639Z,42.7
2016-05-06T08:15:27.641Z,42.92
2016-05-06T08:16:27.660Z,43.16
2016-05-06T08:17:27.646Z,43.02
2016-05-06T08:18:27.649Z,43.11
2016-05-06T08:19:27.668Z,42.94
2016-05-06T08:20:27.670Z,42.66
2016-05-06T08:21:27.688Z,42.49
2016-05-06T08:22:27.691Z,41.88
2016-05-06T08:23:27.710Z,41.42
2016-05-06T08:24:27.712Z,41.18
2016-05-06T08:25:27.730Z,41.42
2016-05-06T08:26:27.733Z,41.7
2016-05-06T08:27:27.767Z,41.84
2016-05-06T08:28:27.754Z,41.8
2016-05-06T08:29:27.773Z,41.93
2016-05-06T08:30:27.775Z,41.96
2016-05-06T08:31:27.481Z,42.34
2016-05-06T08:32:27.640Z,42.58
2016-05-06T08:33:27.799Z,42.56
2016-05-06T08:34:27.817Z,42.52
2016-05-06T08:35:27.679Z,42.63
2016-05-06T08:36:27.854Z,42.75
2016-05-06T08:37:27.825Z,42.81
2016-05-06T08:38:27.844Z,42.84
2016-05-06T08:39:27.705Z,43.03
2016-05-06T08:40:27.881Z,42.94
2016-05-06T08:41:28.023Z,42.65
2016-05-06T08:42:27.886Z,42.49
2016-05-06T08:43:27.732Z,42.51
2016-05-06T08:44:27.750Z,42.34
2016-05-06T08:45:27.909Z,42.37
2016-05-06T08:46:27.911Z,42.34
2016-05-06T08:47:27.930Z,42.37
2016-05-06T08:48:27.792Z,42.22
2016-05-06T08:49:27.935Z,41.95
2016-05-06T08:50:27.954Z,41.81
2016-05-06T08:51:27.957Z,41.42
2016-05-06T08:52:27.974Z,41
2016-05-06T08:53:27.963Z,40.64
2016-05-06T08:54:27.840Z,40.39
2016-05-06T08:55:27.999Z,40.34
2016-05-06T08:56:27.970Z,40.36
2016-05-06T08:57:28.035Z,40.55
2016-05-06T08:58:28.007Z,40.76
2016-05-06T08:59:28.026Z,40.81
2016-05-06T09:00:27.871Z,41.17
2016-05-06T09:01:27.890Z,41.57
2016-05-06T09:02:28.048Z,41.96
2016-05-06T09:03:28.052Z,42.75
2016-05-06T09:04:28.148Z,43.36
2016-05-06T09:05:27.917Z,43.68
2016-05-06T09:06:27.919Z,43.77
2016-05-06T09:07:28.078Z,43.95
2016-05-06T09:08:27.924Z,43.8
2016-05-06T09:09:28.098Z,43.47
2016-05-06T09:10:28.101Z,42.86
2016-05-06T09:11:27.964Z,42.37
2016-05-06T09:12:28.123Z,41.96
2016-05-06T09:13:27.969Z,41.65
2016-05-06T09:14:28.128Z,41.39
2016-05-06T09:15:28.146Z,41.44
2016-05-06T09:16:28.164Z,41.39
2016-05-06T09:17:28.167Z,41.27
2016-05-06T09:18:28.014Z,41.3
2016-05-06T09:19:28.250Z,41.27
2016-05-06T09:20:28.175Z,41.36
2016-05-06T09:21:28.177Z,41.48
2016-05-06T09:22:28.197Z,41.39
2016-05-06T09:23:28.183Z,41.46
2016-05-06T09:24:28.060Z,41.53
2016-05-06T09:25:28.221Z,41.33
2016-05-06T09:26:28.224Z,40.89
2016-05-06T09:27:28.226Z,40.57
2016-05-06T09:28:28.229Z,39.71
2016-05-06T09:29:28.231Z,38.79
2016-05-06T09:30:28.077Z,38.14
2016-05-06T09:31:28.236Z,37.31
2016-05-06T09:32:28.239Z,36.26
2016-05-06T09:33:28.273Z,35.25
2016-05-06T09:34:28.245Z,34.46
2016-05-06T09:35:28.107Z,33.72
2016-05-06T09:36:28.125Z,32.82
2016-05-06T09:37:28.268Z,31.92
2016-05-06T09:38:28.162Z,31.29
2016-05-06T09:39:28.289Z,30.44
2016-05-06T09:40:28.136Z,29.87
2016-05-06T09:41:28.295Z,29.28
2016-05-06T09:42:28.312Z,28.82
2016-05-06T09:43:28.159Z,28.38
2016-05-06T09:44:28.318Z,28
2016-05-06T09:45:28.165Z,27.52
2016-05-06T09:46:28.167Z,27.19
2016-05-06T09:47:28.326Z,26.83
2016-05-06T09:48:28.329Z,26.46
2016-05-06T09:49:28.331Z,26.1
2016-05-06T09:50:28.349Z,25.89
2016-05-06T09:51:28.353Z,25.58
2016-05-06T09:52:28.355Z,25.33
2016-05-06T09:53:28.358Z,25.26
2016-05-06T09:54:28.361Z,25.14
2016-05-06T09:55:28.379Z,24.88
2016-05-06T09:56:28.522Z,24.58
2016-05-06T09:57:28.400Z,24.58
2016-05-06T09:58:28.371Z,24.25
2016-05-06T09:59:28.390Z,24.1
2016-05-06T10:00:28.392Z,23.88
2016-05-06T10:01:28.411Z,23.74
2016-05-06T10:02:28.413Z,23.74
2016-05-06T10:03:28.275Z,23.76
2016-05-06T10:04:28.419Z,23.67
2016-05-06T10:05:28.421Z,23.66
2016-05-06T10:06:28.439Z,23.59
2016-05-06T10:07:28.427Z,23.64
2016-05-06T10:08:28.445Z,23.66
2016-05-06T10:09:28.448Z,23.64
2016-05-06T10:10:28.451Z,23.62
2016-05-06T10:11:28.500Z,23.67
2016-05-06T10:12:28.456Z,23.58
2016-05-06T10:13:28.459Z,23.63
2016-05-06T10:14:28.462Z,23.54
2016-05-06T10:15:28.464Z,23.66
2016-05-06T10:16:28.467Z,23.62
2016-05-06T10:17:28.328Z,23.55
2016-05-06T10:18:28.472Z,23.54
2016-05-06T10:19:28.491Z,23.55
2016-05-06T10:20:28.493Z,23.55
2016-05-06T10:21:28.340Z,23.36
2016-05-06T10:22:28.499Z,23.37
2016-05-06T10:23:28.502Z,23.32
2016-05-06T10:24:28.363Z,23.13
2016-05-06T10:25:28.365Z,23.04
2016-05-06T10:26:29.760Z,22.84
2016-05-06T10:27:28.527Z,22.78
2016-05-06T10:28:28.530Z,22.71
2016-05-06T10:29:28.549Z,22.56
2016-05-06T10:30:28.410Z,22.47
2016-05-06T10:31:28.554Z,22.31
2016-05-06T10:32:28.401Z,22.04
2016-05-06T10:33:28.560Z,22
2016-05-06T10:34:28.562Z,21.97
2016-05-06T10:35:28.409Z,22
2016-05-06T10:36:28.567Z,22.04
2016-05-06T10:37:28.570Z,22.04
2016-05-06T10:38:28.557Z,22.07
2016-05-06T10:39:28.419Z,21.99
2016-05-06T10:40:28.437Z,21.85
2016-05-06T10:41:29.253Z,21.85
2016-05-06T10:42:28.584Z,21.94
2016-05-06T10:43:28.430Z,21.78
2016-05-06T10:44:28.604Z,21.81
2016-05-06T10:45:28.592Z,21.7
2016-05-06T10:46:28.594Z,21.6
2016-05-06T10:47:28.612Z,21.66
2016-05-06T10:48:28.615Z,21.6
2016-05-06T10:49:28.617Z,21.56
2016-05-06T10:50:28.621Z,21.45
2016-05-06T10:51:28.639Z,21.47
2016-05-06T10:52:28.641Z,21.47
2016-05-06T10:53:28.488Z,21.43
2016-05-06T10:54:28.647Z,21.53
2016-05-06T10:55:28.494Z,21.51
2016-05-06T10:56:28.528Z,21.66
2016-05-06T10:57:28.655Z,21.54
2016-05-06T10:58:28.658Z,21.54
2016-05-06T10:59:28.676Z,21.63
2016-05-06T11:00:28.664Z,21.6
2016-05-06T11:01:28.509Z,21.51
2016-05-06T11:02:28.653Z,21.58
2016-05-06T11:03:28.374Z,21.7
2016-05-06T11:04:28.690Z,21.91
2016-05-06T11:05:28.692Z,21.94
2016-05-06T11:06:28.695Z,21.99
2016-05-06T11:07:28.526Z,22.03
2016-05-06T11:08:28.701Z,22.03
2016-05-06T11:09:28.703Z,21.94
2016-05-06T11:10:28.409Z,21.94
2016-05-06T11:11:29.146Z,21.78
2016-05-06T11:12:28.555Z,21.7
2016-05-06T11:13:28.573Z,21.62
2016-05-06T11:14:28.560Z,21.63
2016-05-06T11:15:28.735Z,21.63
2016-05-06T11:16:28.722Z,21.65
2016-05-06T11:17:28.740Z,21.59
2016-05-06T11:18:28.743Z,21.81
2016-05-06T11:19:28.745Z,21.78
2016-05-06T11:20:28.748Z,21.78
2016-05-06T11:21:28.767Z,21.8
2016-05-06T11:22:28.754Z,21.84
2016-05-06T11:23:28.600Z,21.91
2016-05-06T11:24:28.602Z,21.85
2016-05-06T11:25:28.778Z,21.92
2016-05-06T11:26:28.780Z,21.92
2016-05-06T11:27:28.455Z,21.85
2016-05-06T11:28:28.630Z,21.75
2016-05-06T11:29:28.772Z,21.77
2016-05-06T11:30:28.791Z,21.78
2016-05-06T11:31:28.778Z,21.8
2016-05-06T11:32:28.812Z,21.75
2016-05-06T11:33:28.815Z,21.8
2016-05-06T11:34:28.802Z,21.66
2016-05-06T11:35:28.804Z,21.63
2016-05-06T11:36:28.824Z,21.63
2016-05-06T11:37:28.810Z,21.74
2016-05-06T11:38:28.812Z,21.74
2016-05-06T11:39:28.816Z,21.72
2016-05-06T11:40:28.818Z,21.69
2016-05-06T11:41:28.665Z,21.62
2016-05-06T11:42:28.667Z,21.66
2016-05-06T11:43:29.310Z,21.56
2016-05-06T11:44:28.829Z,21.5
2016-05-06T11:45:28.831Z,21.58
2016-05-06T11:46:28.693Z,21.54
2016-05-06T11:47:28.853Z,21.6
2016-05-06T11:48:28.698Z,21.58
2016-05-06T11:49:28.686Z,21.59
2016-05-06T11:50:28.720Z,21.53
2016-05-06T11:51:28.864Z,21.62
2016-05-06T11:52:28.866Z,21.7
2016-05-06T11:53:28.869Z,21.74
2016-05-06T11:54:28.872Z,21.65
2016-05-06T11:55:28.561Z,21.75
2016-05-06T11:56:28.877Z,21.65
2016-05-06T11:57:28.879Z,21.75
2016-05-06T11:58:28.883Z,21.74
2016-05-06T11:59:28.885Z,21.77
2016-05-06T12:00:28.902Z,21.77
2016-05-06T12:01:28.906Z,21.78
2016-05-06T12:02:28.893Z,21.75
2016-05-06T12:03:28.739Z,21.78
2016-05-06T12:04:28.913Z,21.75
2016-05-06T12:05:28.902Z,21.75
2016-05-06T12:06:28.904Z,21.77
2016-05-06T12:07:28.781Z,21.66
2016-05-06T12:08:28.925Z,21.72
2016-05-06T12:09:28.927Z,21.77
2016-05-06T12:10:28.930Z,21.77
2016-05-06T12:11:30.385Z,21.83
2016-05-06T12:12:28.951Z,21.8
2016-05-06T12:13:28.938Z,21.77
2016-05-06T12:14:28.956Z,21.92
2016-05-06T12:15:28.943Z,21.84
2016-05-06T12:16:28.945Z,21.83
2016-05-06T12:17:28.949Z,21.91
2016-05-06T12:18:28.967Z,21.84
2016-05-06T12:19:28.814Z,21.81
2016-05-06T12:20:28.957Z,21.83
2016-05-06T12:21:28.959Z,21.7
2016-05-06T12:22:28.962Z,21.77
2016-05-06T12:23:28.981Z,21.69
2016-05-06T12:24:28.967Z,21.68
2016-05-06T12:25:28.814Z,21.66
2016-05-06T12:26:29.254Z,21.65
2016-05-06T12:27:28.992Z,21.78
2016-05-06T12:28:28.978Z,21.88
2016-05-06T12:29:28.996Z,21.96
2016-05-06T12:30:28.984Z,21.94
2016-05-06T12:31:28.986Z,21.96
2016-05-06T12:32:28.849Z,21.91
2016-05-06T12:33:29.008Z,21.94
2016-05-06T12:34:29.010Z,21.89
2016-05-06T12:35:29.013Z,21.92
2016-05-06T12:36:28.874Z,22.04
2016-05-06T12:37:28.863Z,21.94
2016-05-06T12:38:28.865Z,22.01
2016-05-06T12:39:29.273Z,22.03
2016-05-06T12:40:29.355Z,22.18
2016-05-06T12:41:29.044Z,22.19
2016-05-06T12:42:28.890Z,22.18
2016-05-06T12:43:29.035Z,22.07
2016-05-06T12:44:29.037Z,22.04
2016-05-06T12:45:29.055Z,21.94
2016-05-06T12:46:29.057Z,21.94
2016-05-06T12:47:28.889Z,21.85
2016-05-06T12:48:29.048Z,21.84
2016-05-06T12:49:29.066Z,21.83
2016-05-06T12:50:28.898Z,21.88
2016-05-06T12:51:29.056Z,21.77
2016-05-06T12:52:29.074Z,21.77
2016-05-06T12:53:37.030Z,21.88
2016-05-06T12:54:29.079Z,21.94
2016-05-06T12:55:28.926Z,21.99
2016-05-06T12:56:28.991Z,22.12
2016-05-06T12:57:29.087Z,22.16
2016-05-06T12:58:29.090Z,22.25
2016-05-06T12:59:29.093Z,22.4
2016-05-06T13:00:29.095Z,22.34
2016-05-06T13:01:29.114Z,22.44
2016-05-06T13:02:29.117Z,22.47
2016-05-06T13:03:29.103Z,22.47
2016-05-06T13:04:29.497Z,22.47